sensor_id;sensor_type;location;lat;lon;timestamp;P1;durP1;ratioP1;P2;durP2;ratioP2
28724;SDS011;43472;48.980;9.646;2023-01-05T00:02:30;0.57;;;0.28;;
28724;SDS011;43472;48.980;9.646;2023-01-05T00:07:32;3.83;;;2.22;;
28724;SDS011;43472;48.980;9.646;2023-01-05T00:12:34;0.20;;;0.20;;
28724;SDS011;43472;48.980;9.646;2023-01-05T00:17:55;2.75;;;1.30;;
28724;SDS011;43472;48.980;9.646;2023-01-05T00:23:15;0.38;;;0.28;;
28724;SDS011;43472;48.980;9.646;2023-01-05T00:28:18;1.17;;;0.88;;
28724;SDS011;43472;48.980;9.646;2023-01-05T00:33:20;1.23;;;0.50;;
28724;SDS011;43472;48.980;9.646;2023-01-05T00:38:21;0.65;;;0.43;;
28724;SDS011;43472;48.980;9.646;2023-01-05T00:43:23;2.97;;;1.70;;
28724;SDS011;43472;48.980;9.646;2023-01-05T00:48:25;0.55;;;0.47;;
28724;SDS011;43472;48.980;9.646;2023-01-05T00:53:26;0.32;;;0.28;;
28724;SDS011;43472;48.980;9.646;2023-01-05T00:58:28;1.02;;;0.40;;
28724;SDS011;43472;48.980;9.646;2023-01-05T01:03:30;0.20;;;0.20;;
28724;SDS011;43472;48.980;9.646;2023-01-05T01:08:31;0.40;;;0.30;;
28724;SDS011;43472;48.980;9.646;2023-01-05T01:13:34;2.45;;;0.17;;
28724;SDS011;43472;48.980;9.646;2023-01-05T01:18:36;0.20;;;0.10;;
28724;SDS011;43472;48.980;9.646;2023-01-05T01:23:38;0.20;;;0.20;;
28724;SDS011;43472;48.980;9.646;2023-01-05T01:28:40;0.30;;;0.30;;
28724;SDS011;43472;48.980;9.646;2023-01-05T01:33:42;0.00;;;0.00;;
28724;SDS011;43472;48.980;9.646;2023-01-05T01:38:44;0.25;;;0.10;;
28724;SDS011;43472;48.980;9.646;2023-01-05T01:43:47;0.25;;;0.10;;
28724;SDS011;43472;48.980;9.646;2023-01-05T01:53:57;0.43;;;0.10;;
28724;SDS011;43472;48.980;9.646;2023-01-05T01:59:01;0.10;;;0.10;;
28724;SDS011;43472;48.980;9.646;2023-01-05T02:04:03;1.90;;;0.65;;
28724;SDS011;43472;48.980;9.646;2023-01-05T02:09:07;0.43;;;0.03;;
28724;SDS011;43472;48.980;9.646;2023-01-05T02:19:57;0.43;;;0.10;;
28724;SDS011;43472;48.980;9.646;2023-01-05T02:36:14;0.10;;;0.10;;
28724;SDS011;43472;48.980;9.646;2023-01-05T02:46:37;0.10;;;0.10;;
28724;SDS011;43472;48.980;9.646;2023-01-05T02:51:39;0.00;;;0.00;;
28724;SDS011;43472;48.980;9.646;2023-01-05T02:56:48;0.10;;;0.00;;
28724;SDS011;43472;48.980;9.646;2023-01-05T03:02:11;0.60;;;0.10;;
28724;SDS011;43472;48.980;9.646;2023-01-05T03:07:20;0.00;;;0.00;;
28724;SDS011;43472;48.980;9.646;2023-01-05T03:12:29;0.30;;;0.03;;
28724;SDS011;43472;48.980;9.646;2023-01-05T03:18:15;0.45;;;0.10;;
28724;SDS011;43472;48.980;9.646;2023-01-05T03:23:17;0.20;;;0.10;;
28724;SDS011;43472;48.980;9.646;2023-01-05T03:28:52;0.03;;;0.03;;
28724;SDS011;43472;48.980;9.646;2023-01-05T03:39:56;0.10;;;0.10;;
28724;SDS011;43472;48.980;9.646;2023-01-05T03:45:00;0.47;;;0.10;;
28724;SDS011;43472;48.980;9.646;2023-01-05T03:50:02;1.15;;;0.08;;
28724;SDS011;43472;48.980;9.646;2023-01-05T03:55:04;0.43;;;0.10;;
28724;SDS011;43472;48.980;9.646;2023-01-05T04:00:06;0.20;;;0.10;;
28724;SDS011;43472;48.980;9.646;2023-01-05T04:05:09;0.68;;;0.20;;
28724;SDS011;43472;48.980;9.646;2023-01-05T04:10:10;0.00;;;0.00;;
28724;SDS011;43472;48.980;9.646;2023-01-05T04:15:12;0.15;;;0.10;;
28724;SDS011;43472;48.980;9.646;2023-01-05T04:20:15;0.08;;;0.08;;
28724;SDS011;43472;48.980;9.646;2023-01-05T04:25:17;0.25;;;0.10;;
28724;SDS011;43472;48.980;9.646;2023-01-05T04:30:19;0.28;;;0.10;;
28724;SDS011;43472;48.980;9.646;2023-01-05T04:35:21;0.00;;;0.00;;
28724;SDS011;43472;48.980;9.646;2023-01-05T04:40:23;0.10;;;0.10;;
28724;SDS011;43472;48.980;9.646;2023-01-05T04:45:25;0.20;;;0.10;;
28724;SDS011;43472;48.980;9.646;2023-01-05T04:50:27;0.15;;;0.00;;
28724;SDS011;43472;48.980;9.646;2023-01-05T04:55:29;0.00;;;0.00;;
28724;SDS011;43472;48.980;9.646;2023-01-05T05:00:31;0.55;;;0.00;;
28724;SDS011;43472;48.980;9.646;2023-01-05T05:05:33;0.10;;;0.10;;
28724;SDS011;43472;48.980;9.646;2023-01-05T05:10:35;0.05;;;0.00;;
28724;SDS011;43472;48.980;9.646;2023-01-05T05:15:36;0.47;;;0.00;;
28724;SDS011;43472;48.980;9.646;2023-01-05T05:20:39;0.13;;;0.10;;
28724;SDS011;43472;48.980;9.646;2023-01-05T05:25:43;1.13;;;0.20;;
28724;SDS011;43472;48.980;9.646;2023-01-05T05:30:47;0.75;;;0.17;;
28724;SDS011;43472;48.980;9.646;2023-01-05T05:35:49;0.13;;;0.13;;
28724;SDS011;43472;48.980;9.646;2023-01-05T05:40:51;0.10;;;0.10;;
28724;SDS011;43472;48.980;9.646;2023-01-05T05:45:54;2.25;;;0.30;;
28724;SDS011;43472;48.980;9.646;2023-01-05T05:50:55;0.57;;;0.30;;
28724;SDS011;43472;48.980;9.646;2023-01-05T05:55:57;0.57;;;0.57;;
28724;SDS011;43472;48.980;9.646;2023-01-05T06:00:59;2.13;;;0.38;;
28724;SDS011;43472;48.980;9.646;2023-01-05T06:06:01;1.75;;;0.50;;
28724;SDS011;43472;48.980;9.646;2023-01-05T06:11:03;7.05;;;2.13;;
28724;SDS011;43472;48.980;9.646;2023-01-05T06:16:05;0.93;;;0.30;;
28724;SDS011;43472;48.980;9.646;2023-01-05T06:21:07;4.53;;;0.50;;
28724;SDS011;43472;48.980;9.646;2023-01-05T06:26:09;4.32;;;0.65;;
28724;SDS011;43472;48.980;9.646;2023-01-05T06:31:11;7.53;;;0.90;;
28724;SDS011;43472;48.980;9.646;2023-01-05T06:36:13;6.32;;;1.38;;
28724;SDS011;43472;48.980;9.646;2023-01-05T06:41:14;17.45;;;1.83;;
28724;SDS011;43472;48.980;9.646;2023-01-05T06:46:16;4.40;;;0.93;;
28724;SDS011;43472;48.980;9.646;2023-01-05T06:51:18;6.75;;;1.27;;
28724;SDS011;43472;48.980;9.646;2023-01-05T06:56:20;6.85;;;1.17;;
28724;SDS011;43472;48.980;9.646;2023-01-05T07:01:22;7.40;;;1.25;;
28724;SDS011;43472;48.980;9.646;2023-01-05T07:06:23;8.63;;;1.45;;
28724;SDS011;43472;48.980;9.646;2023-01-05T07:11:25;9.90;;;1.65;;
28724;SDS011;43472;48.980;9.646;2023-01-05T07:16:27;18.35;;;4.30;;
28724;SDS011;43472;48.980;9.646;2023-01-05T07:21:29;72.13;;;36.55;;
28724;SDS011;43472;48.980;9.646;2023-01-05T07:26:31;9.40;;;2.15;;
28724;SDS011;43472;48.980;9.646;2023-01-05T07:31:33;6.07;;;1.50;;
28724;SDS011;43472;48.980;9.646;2023-01-05T07:36:34;6.28;;;2.03;;
28724;SDS011;43472;48.980;9.646;2023-01-05T07:41:36;6.97;;;1.60;;
28724;SDS011;43472;48.980;9.646;2023-01-05T07:46:38;13.82;;;2.17;;
28724;SDS011;43472;48.980;9.646;2023-01-05T07:51:40;7.60;;;1.92;;
28724;SDS011;43472;48.980;9.646;2023-01-05T07:56:42;13.77;;;2.25;;
28724;SDS011;43472;48.980;9.646;2023-01-05T08:01:44;15.07;;;2.28;;
28724;SDS011;43472;48.980;9.646;2023-01-05T08:06:46;7.25;;;1.60;;
28724;SDS011;43472;48.980;9.646;2023-01-05T08:11:47;11.77;;;1.38;;
28724;SDS011;43472;48.980;9.646;2023-01-05T08:16:49;13.90;;;1.73;;
28724;SDS011;43472;48.980;9.646;2023-01-05T08:21:51;13.52;;;1.98;;
28724;SDS011;43472;48.980;9.646;2023-01-05T08:26:53;9.60;;;1.60;;
28724;SDS011;43472;48.980;9.646;2023-01-05T08:31:55;17.20;;;2.50;;
28724;SDS011;43472;48.980;9.646;2023-01-05T08:36:57;10.45;;;2.33;;
28724;SDS011;43472;48.980;9.646;2023-01-05T08:41:59;12.77;;;1.80;;
28724;SDS011;43472;48.980;9.646;2023-01-05T08:47:03;7.15;;;1.55;;
28724;SDS011;43472;48.980;9.646;2023-01-05T08:52:04;8.55;;;1.58;;
28724;SDS011;43472;48.980;9.646;2023-01-05T08:57:08;7.95;;;1.20;;
28724;SDS011;43472;48.980;9.646;2023-01-05T09:02:10;4.22;;;1.23;;
28724;SDS011;43472;48.980;9.646;2023-01-05T09:07:12;7.53;;;1.55;;
28724;SDS011;43472;48.980;9.646;2023-01-05T09:12:14;5.80;;;1.52;;
28724;SDS011;43472;48.980;9.646;2023-01-05T09:17:16;7.93;;;1.65;;
28724;SDS011;43472;48.980;9.646;2023-01-05T09:22:18;6.80;;;1.35;;
28724;SDS011;43472;48.980;9.646;2023-01-05T09:27:19;4.35;;;1.35;;
28724;SDS011;43472;48.980;9.646;2023-01-05T09:32:21;7.20;;;1.67;;
28724;SDS011;43472;48.980;9.646;2023-01-05T09:37:24;8.50;;;1.30;;
28724;SDS011;43472;48.980;9.646;2023-01-05T09:42:26;6.65;;;1.15;;
28724;SDS011;43472;48.980;9.646;2023-01-05T09:47:35;11.07;;;1.50;;
28724;SDS011;43472;48.980;9.646;2023-01-05T09:52:39;6.78;;;1.63;;
28724;SDS011;43472;48.980;9.646;2023-01-05T09:57:42;9.02;;;1.77;;
28724;SDS011;43472;48.980;9.646;2023-01-05T10:08:02;8.68;;;1.98;;
28724;SDS011;43472;48.980;9.646;2023-01-05T10:13:07;7.47;;;1.85;;
28724;SDS011;43472;48.980;9.646;2023-01-05T10:18:25;9.55;;;2.33;;
28724;SDS011;43472;48.980;9.646;2023-01-05T10:28:56;14.88;;;2.33;;
28724;SDS011;43472;48.980;9.646;2023-01-05T10:34:16;10.75;;;2.63;;
28724;SDS011;43472;48.980;9.646;2023-01-05T10:39:42;10.30;;;1.98;;
28724;SDS011;43472;48.980;9.646;2023-01-05T10:44:57;11.07;;;2.35;;
28724;SDS011;43472;48.980;9.646;2023-01-05T10:50:18;12.25;;;1.88;;
28724;SDS011;43472;48.980;9.646;2023-01-05T10:55:25;11.63;;;2.22;;
28724;SDS011;43472;48.980;9.646;2023-01-05T11:00:39;17.85;;;3.42;;
28724;SDS011;43472;48.980;9.646;2023-01-05T11:05:43;13.23;;;2.55;;
28724;SDS011;43472;48.980;9.646;2023-01-05T11:15:56;15.02;;;2.38;;
28724;SDS011;43472;48.980;9.646;2023-01-05T11:26:32;16.47;;;2.13;;
28724;SDS011;43472;48.980;9.646;2023-01-05T11:31:52;16.98;;;2.63;;
28724;SDS011;43472;48.980;9.646;2023-01-05T11:52:53;16.73;;;3.22;;
28724;SDS011;43472;48.980;9.646;2023-01-05T11:57:59;10.52;;;1.83;;
28724;SDS011;43472;48.980;9.646;2023-01-05T12:03:36;17.15;;;3.53;;
28724;SDS011;43472;48.980;9.646;2023-01-05T12:36:08;18.58;;;2.88;;
28724;SDS011;43472;48.980;9.646;2023-01-05T12:41:37;16.95;;;3.35;;
28724;SDS011;43472;48.980;9.646;2023-01-05T12:52:16;15.63;;;3.08;;
28724;SDS011;43472;48.980;9.646;2023-01-05T12:57:33;16.35;;;4.30;;
28724;SDS011;43472;48.980;9.646;2023-01-05T13:08:04;20.08;;;2.40;;
28724;SDS011;43472;48.980;9.646;2023-01-05T13:13:19;13.07;;;3.60;;
28724;SDS011;43472;48.980;9.646;2023-01-05T13:18:35;15.30;;;4.68;;
28724;SDS011;43472;48.980;9.646;2023-01-05T13:24:25;15.60;;;2.95;;
28724;SDS011;43472;48.980;9.646;2023-01-05T13:29:15;21.27;;;4.30;;
28724;SDS011;43472;48.980;9.646;2023-01-05T13:50:20;14.13;;;2.95;;
28724;SDS011;43472;48.980;9.646;2023-01-05T13:55:50;14.63;;;2.85;;
28724;SDS011;43472;48.980;9.646;2023-01-05T14:00:58;16.67;;;2.70;;
28724;SDS011;43472;48.980;9.646;2023-01-05T14:06:03;15.13;;;3.67;;
28724;SDS011;43472;48.980;9.646;2023-01-05T14:11:19;18.70;;;3.50;;
28724;SDS011;43472;48.980;9.646;2023-01-05T14:21:42;15.50;;;2.38;;
28724;SDS011;43472;48.980;9.646;2023-01-05T14:27:04;19.38;;;5.15;;
28724;SDS011;43472;48.980;9.646;2023-01-05T14:37:59;17.65;;;3.10;;
28724;SDS011;43472;48.980;9.646;2023-01-05T14:43:27;19.13;;;3.75;;
28724;SDS011;43472;48.980;9.646;2023-01-05T14:48:43;25.83;;;7.45;;
28724;SDS011;43472;48.980;9.646;2023-01-05T14:54:02;13.18;;;3.70;;
28724;SDS011;43472;48.980;9.646;2023-01-05T15:04:29;25.55;;;5.63;;
28724;SDS011;43472;48.980;9.646;2023-01-05T15:26:20;23.58;;;7.63;;
28724;SDS011;43472;48.980;9.646;2023-01-05T15:36:31;17.60;;;4.45;;
28724;SDS011;43472;48.980;9.646;2023-01-05T15:41:47;13.82;;;3.35;;
28724;SDS011;43472;48.980;9.646;2023-01-05T15:46:49;15.57;;;3.50;;
28724;SDS011;43472;48.980;9.646;2023-01-05T15:51:52;14.52;;;2.25;;
28724;SDS011;43472;48.980;9.646;2023-01-05T15:56:57;20.67;;;4.25;;
28724;SDS011;43472;48.980;9.646;2023-01-05T16:02:00;14.85;;;2.88;;
28724;SDS011;43472;48.980;9.646;2023-01-05T16:07:03;17.50;;;3.03;;
28724;SDS011;43472;48.980;9.646;2023-01-05T16:12:08;14.25;;;2.97;;
28724;SDS011;43472;48.980;9.646;2023-01-05T16:17:24;11.75;;;2.33;;
28724;SDS011;43472;48.980;9.646;2023-01-05T16:22:33;17.73;;;2.50;;
28724;SDS011;43472;48.980;9.646;2023-01-05T16:27:46;14.88;;;3.13;;
28724;SDS011;43472;48.980;9.646;2023-01-05T16:38:27;46.63;;;14.43;;
28724;SDS011;43472;48.980;9.646;2023-01-05T16:43:41;20.92;;;5.93;;
28724;SDS011;43472;48.980;9.646;2023-01-05T16:48:45;30.17;;;12.02;;
28724;SDS011;43472;48.980;9.646;2023-01-05T16:53:51;22.95;;;6.95;;
28724;SDS011;43472;48.980;9.646;2023-01-05T16:58:55;24.75;;;6.55;;
28724;SDS011;43472;48.980;9.646;2023-01-05T17:04:20;20.88;;;6.57;;
28724;SDS011;43472;48.980;9.646;2023-01-05T17:09:27;20.38;;;4.85;;
28724;SDS011;43472;48.980;9.646;2023-01-05T17:14:31;20.48;;;5.28;;
28724;SDS011;43472;48.980;9.646;2023-01-05T17:19:33;13.73;;;5.57;;
28724;SDS011;43472;48.980;9.646;2023-01-05T17:24:36;22.17;;;4.65;;
28724;SDS011;43472;48.980;9.646;2023-01-05T17:29:38;17.90;;;4.45;;
28724;SDS011;43472;48.980;9.646;2023-01-05T17:34:39;22.67;;;5.60;;
28724;SDS011;43472;48.980;9.646;2023-01-05T17:39:42;24.00;;;5.07;;
28724;SDS011;43472;48.980;9.646;2023-01-05T17:44:44;18.05;;;4.25;;
28724;SDS011;43472;48.980;9.646;2023-01-05T17:49:45;19.70;;;4.03;;
28724;SDS011;43472;48.980;9.646;2023-01-05T17:54:47;14.13;;;3.08;;
28724;SDS011;43472;48.980;9.646;2023-01-05T17:59:49;13.48;;;2.83;;
28724;SDS011;43472;48.980;9.646;2023-01-05T18:04:51;15.98;;;3.25;;
28724;SDS011;43472;48.980;9.646;2023-01-05T18:09:52;18.25;;;4.38;;
28724;SDS011;43472;48.980;9.646;2023-01-05T18:14:54;14.85;;;3.15;;
28724;SDS011;43472;48.980;9.646;2023-01-05T18:19:56;12.20;;;3.20;;
28724;SDS011;43472;48.980;9.646;2023-01-05T18:24:57;13.00;;;3.72;;
28724;SDS011;43472;48.980;9.646;2023-01-05T18:30:00;15.60;;;4.45;;
28724;SDS011;43472;48.980;9.646;2023-01-05T18:35:06;19.58;;;3.83;;
28724;SDS011;43472;48.980;9.646;2023-01-05T18:40:10;17.10;;;4.13;;
28724;SDS011;43472;48.980;9.646;2023-01-05T18:45:13;20.45;;;4.15;;
28724;SDS011;43472;48.980;9.646;2023-01-05T18:50:25;19.60;;;3.92;;
28724;SDS011;43472;48.980;9.646;2023-01-05T18:55:27;19.67;;;3.78;;
28724;SDS011;43472;48.980;9.646;2023-01-05T19:00:29;14.60;;;3.60;;
28724;SDS011;43472;48.980;9.646;2023-01-05T19:05:33;19.23;;;3.25;;
28724;SDS011;43472;48.980;9.646;2023-01-05T19:10:39;12.68;;;2.80;;
28724;SDS011;43472;48.980;9.646;2023-01-05T19:15:41;12.38;;;3.13;;
28724;SDS011;43472;48.980;9.646;2023-01-05T19:20:42;16.90;;;6.45;;
28724;SDS011;43472;48.980;9.646;2023-01-05T19:25:44;17.77;;;2.95;;
28724;SDS011;43472;48.980;9.646;2023-01-05T19:30:46;21.48;;;3.42;;
28724;SDS011;43472;48.980;9.646;2023-01-05T19:35:47;20.90;;;6.15;;
28724;SDS011;43472;48.980;9.646;2023-01-05T19:40:49;24.38;;;9.30;;
28724;SDS011;43472;48.980;9.646;2023-01-05T19:45:55;21.83;;;8.57;;
28724;SDS011;43472;48.980;9.646;2023-01-05T19:50:59;9.23;;;2.63;;
28724;SDS011;43472;48.980;9.646;2023-01-05T19:56:06;15.57;;;3.65;;
28724;SDS011;43472;48.980;9.646;2023-01-05T20:07:19;38.88;;;17.73;;
28724;SDS011;43472;48.980;9.646;2023-01-05T20:12:22;47.08;;;21.65;;
28724;SDS011;43472;48.980;9.646;2023-01-05T20:17:24;131.40;;;56.38;;
28724;SDS011;43472;48.980;9.646;2023-01-05T20:22:25;35.47;;;16.10;;
28724;SDS011;43472;48.980;9.646;2023-01-05T20:27:27;24.95;;;10.38;;
28724;SDS011;43472;48.980;9.646;2023-01-05T20:32:29;25.08;;;6.85;;
28724;SDS011;43472;48.980;9.646;2023-01-05T20:37:30;26.75;;;12.73;;
28724;SDS011;43472;48.980;9.646;2023-01-05T20:42:34;25.90;;;10.23;;
28724;SDS011;43472;48.980;9.646;2023-01-05T20:47:37;16.48;;;7.80;;
28724;SDS011;43472;48.980;9.646;2023-01-05T20:52:48;19.77;;;5.35;;
28724;SDS011;43472;48.980;9.646;2023-01-05T20:57:50;13.95;;;3.75;;
28724;SDS011;43472;48.980;9.646;2023-01-05T21:02:52;11.70;;;3.30;;
28724;SDS011;43472;48.980;9.646;2023-01-05T21:07:54;9.15;;;2.72;;
28724;SDS011;43472;48.980;9.646;2023-01-05T21:12:56;14.68;;;4.38;;
28724;SDS011;43472;48.980;9.646;2023-01-05T21:18:19;8.93;;;2.63;;
28724;SDS011;43472;48.980;9.646;2023-01-05T21:23:21;25.52;;;11.50;;
28724;SDS011;43472;48.980;9.646;2023-01-05T21:28:23;19.55;;;7.75;;
28724;SDS011;43472;48.980;9.646;2023-01-05T21:33:25;21.60;;;8.32;;
28724;SDS011;43472;48.980;9.646;2023-01-05T21:38:26;25.67;;;11.98;;
28724;SDS011;43472;48.980;9.646;2023-01-05T21:43:49;21.17;;;9.93;;
28724;SDS011;43472;48.980;9.646;2023-01-05T21:48:50;19.75;;;6.55;;
28724;SDS011;43472;48.980;9.646;2023-01-05T21:53:52;9.20;;;2.63;;
28724;SDS011;43472;48.980;9.646;2023-01-05T21:59:13;18.80;;;8.57;;
28724;SDS011;43472;48.980;9.646;2023-01-05T22:04:14;30.02;;;11.88;;
28724;SDS011;43472;48.980;9.646;2023-01-05T22:09:16;20.15;;;9.77;;
28724;SDS011;43472;48.980;9.646;2023-01-05T22:14:18;20.48;;;8.43;;
28724;SDS011;43472;48.980;9.646;2023-01-05T22:19:20;17.98;;;8.60;;
28724;SDS011;43472;48.980;9.646;2023-01-05T22:24:21;21.33;;;9.30;;
28724;SDS011;43472;48.980;9.646;2023-01-05T22:29:23;22.35;;;8.90;;
28724;SDS011;43472;48.980;9.646;2023-01-05T22:34:25;21.73;;;9.82;;
28724;SDS011;43472;48.980;9.646;2023-01-05T22:39:27;23.10;;;9.77;;
28724;SDS011;43472;48.980;9.646;2023-01-05T22:44:28;17.50;;;7.35;;
28724;SDS011;43472;48.980;9.646;2023-01-05T22:49:31;17.20;;;8.35;;
28724;SDS011;43472;48.980;9.646;2023-01-05T22:54:32;13.02;;;5.75;;
28724;SDS011;43472;48.980;9.646;2023-01-05T22:59:34;10.95;;;5.90;;
28724;SDS011;43472;48.980;9.646;2023-01-05T23:04:36;15.88;;;6.53;;
28724;SDS011;43472;48.980;9.646;2023-01-05T23:09:38;17.45;;;6.68;;
28724;SDS011;43472;48.980;9.646;2023-01-05T23:14:40;23.48;;;6.07;;
28724;SDS011;43472;48.980;9.646;2023-01-05T23:19:41;16.75;;;7.90;;
28724;SDS011;43472;48.980;9.646;2023-01-05T23:24:43;18.70;;;8.13;;
28724;SDS011;43472;48.980;9.646;2023-01-05T23:29:45;21.25;;;7.47;;
28724;SDS011;43472;48.980;9.646;2023-01-05T23:34:46;19.50;;;7.03;;
28724;SDS011;43472;48.980;9.646;2023-01-05T23:39:48;14.70;;;5.70;;
28724;SDS011;43472;48.980;9.646;2023-01-05T23:44:49;23.90;;;9.63;;
28724;SDS011;43472;48.980;9.646;2023-01-05T23:49:51;25.20;;;10.88;;
28724;SDS011;43472;48.980;9.646;2023-01-05T23:54:53;25.10;;;9.63;;
28724;SDS011;43472;48.980;9.646;2023-01-05T23:59:55;26.40;;;11.55;;
